Time;durP1;ratioP1;P1;durP2;ratioP2;P2;SDS_P1;SDS_P2;PMS_P1;PMS_P2;Temp;Humidity;BMP_temperature;BMP_pressure;BME280_temperature;BME280_humidity;BME280_pressure;Samples;Min_cycle;Max_cycle;Signal;HPM_P1;HPM_P2
2021/01/25 00:01:53;;;;;;;4.03;2.20;;;;;;;21.89;36.54;93037.69;4973560;28;20026;-86
2021/01/25 00:04:21;;;;;;;3.78;2.08;;;;;;;21.85;36.63;93023.72;4973802;28;20523;-86
2021/01/25 00:06:46;;;;;;;3.00;1.90;;;;;;;21.86;36.67;93047.63;4973951;28;20034;-86
2021/01/25 00:09:12;;;;;;;4.60;2.17;;;;;;;21.81;36.27;93009.78;4973983;28;20023;-86
2021/01/25 00:11:37;;;;;;;3.60;2.00;;;;;;;21.80;36.60;93016.50;4974930;28;20022;-87
2021/01/25 00:14:03;;;;;;;4.47;2.15;;;;;;;21.75;37.16;93010.00;4975085;28;20034;-86
2021/01/25 00:16:28;;;;;;;3.25;2.00;;;;;;;21.75;36.88;93009.25;4975022;28;20023;-86
2021/01/25 00:18:54;;;;;;;3.15;2.33;;;;;;;21.72;36.95;93004.91;4973196;28;20069;-87
2021/01/25 00:21:20;;;;;;;3.60;1.90;;;;;;;21.72;36.87;92991.31;4974667;28;20027;-86
2021/01/25 00:23:46;;;;;;;3.00;2.00;;;;;;;21.72;36.81;93021.22;4974567;28;20093;-86
2021/01/25 00:26:11;;;;;;;4.00;2.17;;;;;;;21.69;36.86;92976.16;4974047;28;20038;-86
2021/01/25 00:28:36;;;;;;;3.35;2.15;;;;;;;21.65;36.78;92951.34;4974242;28;20031;-86
2021/01/25 00:31:02;;;;;;;3.13;1.83;;;;;;;21.62;36.86;92952.44;4973334;28;20031;-86
2021/01/25 00:33:27;;;;;;;3.35;1.85;;;;;;;21.62;36.96;92960.59;4976369;28;20026;-86
2021/01/25 00:35:53;;;;;;;3.28;2.10;;;;;;;21.54;36.84;92946.31;4975557;28;20420;-85
2021/01/25 00:38:18;;;;;;;3.75;2.35;;;;;;;21.46;37.20;92975.44;4974893;28;20081;-86
2021/01/25 00:40:45;;;;;;;4.05;2.17;;;;;;;21.61;36.84;93005.31;4972903;28;20034;-87
2021/01/25 00:43:11;;;;;;;2.75;1.83;;;;;;;21.61;36.88;93005.31;4974294;28;20049;-86
2021/01/25 00:45:36;;;;;;;3.08;1.92;;;;;;;21.59;36.97;93029.56;4977778;28;20026;-86
2021/01/25 00:48:02;;;;;;;3.17;2.00;;;;;;;21.57;36.75;93015.81;4973464;28;20035;-85
2021/01/25 00:50:27;;;;;;;4.15;2.40;;;;;;;21.55;37.07;93012.91;4974113;28;20053;-85
2021/01/25 00:52:53;;;;;;;2.83;1.90;;;;;;;21.55;36.96;93010.19;4972506;28;20034;-84
2021/01/25 00:55:19;;;;;;;3.50;2.00;;;;;;;21.28;36.76;92957.53;4975182;28;20038;-85
2021/01/25 00:57:46;;;;;;;4.75;2.58;;;;;;;21.39;37.10;92972.72;4975193;28;20046;-85
2021/01/25 01:03:05;;;;;;;3.95;2.03;;;;;;;21.31;36.97;92967.28;5161116;23;20084;-75
2021/01/25 01:05:31;;;;;;;4.25;2.67;;;;;;;21.41;36.84;92987.19;4949227;28;20528;-75
2021/01/25 01:07:57;;;;;;;3.50;2.00;;;;;;;21.35;37.12;92972.38;4949866;29;20047;-75
2021/01/25 01:10:23;;;;;;;3.65;2.33;;;;;;;21.43;37.02;92973.78;4949874;29;20038;-75
2021/01/25 01:12:48;;;;;;;3.85;2.25;;;;;;;21.35;37.02;92962.22;4949626;29;20074;-75
2021/01/25 01:15:14;;;;;;;3.10;2.08;;;;;;;21.42;37.17;92980.50;4950844;28;20027;-75
2021/01/25 01:17:40;;;;;;;3.40;2.20;;;;;;;21.41;36.92;92964.75;4950470;28;20042;-75
2021/01/25 01:20:06;;;;;;;4.80;2.60;;;;;;;21.41;37.20;92970.91;4950703;28;20034;-75
2021/01/25 01:22:31;;;;;;;3.88;2.13;;;;;;;21.41;37.16;92975.63;4950769;28;20031;-75
2021/01/25 01:24:57;;;;;;;3.47;1.98;;;;;;;21.39;37.18;92978.88;4950539;28;20149;-75
2021/01/25 01:27:22;;;;;;;2.92;1.90;;;;;;;21.38;37.25;92993.00;4951058;28;20031;-75
2021/01/25 01:29:48;;;;;;;3.17;2.03;;;;;;;21.33;37.23;92975.63;4950701;28;20367;-74
2021/01/25 01:32:13;;;;;;;3.45;2.10;;;;;;;21.37;37.17;92996.97;4949520;28;20030;-75
2021/01/25 01:34:39;;;;;;;4.45;2.22;;;;;;;21.30;37.37;92976.72;4949192;29;20020;-76
2021/01/25 01:37:04;;;;;;;4.35;2.20;;;;;;;21.33;36.92;92981.06;4949435;29;20031;-75
2021/01/25 01:39:30;;;;;;;3.33;1.92;;;;;;;21.35;37.14;92967.66;4950896;28;20027;-75
2021/01/25 01:41:55;;;;;;;3.53;2.10;;;;;;;21.34;36.95;92966.19;4950756;28;20023;-75
2021/01/25 01:44:21;;;;;;;4.32;2.17;;;;;;;21.34;37.25;92965.50;4949624;29;20078;-75
2021/01/25 01:46:46;;;;;;;3.35;2.20;;;;;;;21.29;37.39;92964.41;4950756;28;20542;-75
2021/01/25 01:49:12;;;;;;;3.63;2.08;;;;;;;21.29;37.31;92963.69;4949429;29;20511;-75
2021/01/25 01:51:37;;;;;;;3.20;2.38;;;;;;;21.26;37.26;92938.34;4949371;28;20412;-75
2021/01/25 01:54:03;;;;;;;4.55;2.15;;;;;;;21.23;37.11;92955.72;4949463;29;20046;-75
2021/01/25 01:56:28;;;;;;;3.33;2.03;;;;;;;21.28;37.27;92960.22;4948991;29;20023;-75
2021/01/25 01:58:54;;;;;;;3.28;2.15;;;;;;;21.29;37.18;92972.56;4950787;28;20036;-75
2021/01/25 02:01:19;;;;;;;4.20;2.42;;;;;;;21.27;37.30;92961.53;4952027;29;20099;-75
2021/01/25 02:03:45;;;;;;;3.72;2.13;;;;;;;21.16;37.13;92940.16;4953964;28;20388;-75
2021/01/25 02:06:10;;;;;;;3.88;2.28;;;;;;;21.22;37.35;92970.56;4952917;29;20117;-75
2021/01/25 02:08:36;;;;;;;4.30;2.13;;;;;;;21.22;37.31;92965.13;4952567;29;20043;-75
2021/01/25 02:11:02;;;;;;;2.92;1.80;;;;;;;21.23;37.36;92972.00;4953600;28;20038;-75
2021/01/25 02:13:27;;;;;;;3.80;2.47;;;;;;;21.23;37.39;92988.28;4953864;28;20420;-75
2021/01/25 02:15:53;;;;;;;3.47;2.03;;;;;;;21.13;37.21;92989.38;4936881;29;20035;-75
2021/01/25 02:18:18;;;;;;;3.45;2.00;;;;;;;21.20;37.54;92983.94;4936696;28;20499;-76
2021/01/25 02:20:45;;;;;;;3.90;1.95;;;;;;;21.19;37.29;92949.94;4953808;28;20035;-75
2021/01/25 02:23:30;;;;;;;4.03;1.95;;;;;;;21.21;37.33;92966.41;4936542;29;20082;-75
2021/01/25 02:26:17;;;;;;;3.67;2.08;;;;;;;21.19;37.27;92971.63;4952337;29;20126;-75
2021/01/25 02:28:42;;;;;;;4.05;2.35;;;;;;;21.19;37.38;92971.63;4953843;28;20023;-75
2021/01/25 02:31:08;;;;;;;3.55;2.28;;;;;;;21.18;37.34;92970.22;4952666;28;20385;-75
2021/01/25 02:33:35;;;;;;;3.58;2.20;;;;;;;21.17;37.37;92963.31;4953611;28;20023;-75
2021/01/25 02:36:01;;;;;;;3.08;1.90;;;;;;;21.17;37.41;92963.31;4952395;29;20085;-75
2021/01/25 02:38:26;;;;;;;3.53;2.00;;;;;;;21.18;37.42;92975.63;4953577;28;20024;-75
2021/01/25 02:40:52;;;;;;;2.95;1.95;;;;;;;21.16;37.39;92977.44;4953648;28;20085;-75
2021/01/25 02:43:17;;;;;;;3.70;1.95;;;;;;;21.05;37.33;92962.25;4953150;28;20082;-75
2021/01/25 02:45:43;;;;;;;4.68;2.28;;;;;;;21.12;37.34;92960.78;4952128;29;20031;-75
2021/01/25 02:48:08;;;;;;;3.70;2.20;;;;;;;21.14;37.49;92980.69;4936165;29;20109;-75
2021/01/25 02:50:36;;;;;;;3.45;1.92;;;;;;;21.08;37.29;92971.31;4953238;28;20455;-75
2021/01/25 02:53:02;;;;;;;3.17;2.10;;;;;;;21.15;37.37;92987.59;4953044;28;20039;-75
2021/01/25 02:55:28;;;;;;;3.72;1.90;;;;;;;21.09;37.48;92984.31;4953058;28;20077;-75
2021/01/25 02:57:55;;;;;;;3.60;1.98;;;;;;;21.13;37.24;93006.38;4951930;29;20031;-75
2021/01/25 03:00:21;;;;;;;3.55;2.17;;;;;;;21.13;37.61;92995.53;4953234;28;20038;-75
2021/01/25 03:02:46;;;;;;;2.92;1.83;;;;;;;21.13;37.44;92994.81;4952712;28;20047;-75
2021/01/25 03:05:12;;;;;;;3.42;2.10;;;;;;;21.09;37.47;92997.91;4935908;29;20420;-75
2021/01/25 03:07:37;;;;;;;3.53;2.00;;;;;;;21.10;37.53;93007.47;4951813;29;20254;-75
2021/01/25 03:10:04;;;;;;;3.42;1.80;;;;;;;21.10;37.38;93002.03;4953195;28;20027;-75
2021/01/25 03:12:31;;;;;;;3.70;2.10;;;;;;;21.09;37.35;93000.59;4952455;28;20090;-75
2021/01/25 03:14:57;;;;;;;3.55;2.10;;;;;;;21.09;37.40;92997.16;4952749;28;20027;-75
2021/01/25 03:17:22;;;;;;;3.58;2.20;;;;;;;21.09;37.49;92992.47;4952804;28;20027;-75
2021/01/25 03:19:48;;;;;;;2.97;1.75;;;;;;;20.96;37.38;92981.78;4952972;28;20033;-75
2021/01/25 03:22:13;;;;;;;3.17;2.10;;;;;;;21.07;37.40;92997.69;4951637;29;20442;-75
2021/01/25 03:24:39;;;;;;;3.95;1.90;;;;;;;21.06;37.48;92990.84;4952672;28;20093;-75
2021/01/25 03:27:04;;;;;;;3.35;2.05;;;;;;;21.08;37.43;92993.72;4951153;29;20054;-76
2021/01/25 03:29:30;;;;;;;2.90;1.85;;;;;;;21.07;37.41;92975.97;4952781;28;20500;-75
2021/01/25 03:31:56;;;;;;;3.47;1.90;;;;;;;21.04;37.56;92979.78;4952772;28;20062;-75
2021/01/25 03:34:21;;;;;;;3.42;1.92;;;;;;;21.04;37.48;92982.50;4952791;28;20031;-75
2021/01/25 03:36:46;;;;;;;3.25;2.22;;;;;;;21.00;37.43;92993.00;4952512;28;20027;-75
2021/01/25 03:39:12;;;;;;;2.80;1.52;;;;;;;21.03;37.64;93002.78;4952328;28;20035;-75
2021/01/25 03:41:37;;;;;;;3.80;1.73;;;;;;;20.97;37.40;92977.09;4952219;28;20030;-75
2021/01/25 03:44:03;;;;;;;2.58;1.73;;;;;;;21.02;37.55;92985.03;4952388;28;20411;-75
2021/01/25 03:46:28;;;;;;;3.70;1.88;;;;;;;21.00;37.73;92976.72;4952303;28;20481;-75
2021/01/25 03:48:54;;;;;;;3.90;1.88;;;;;;;20.94;37.61;92950.31;4952252;28;20051;-75
2021/01/25 03:51:20;;;;;;;3.47;1.92;;;;;;;21.10;37.23;92964.03;4952267;28;20031;-75
2021/01/25 03:53:48;;;;;;;3.28;1.95;;;;;;;21.22;37.26;92973.25;4952282;28;20033;-75
2021/01/25 03:56:14;;;;;;;3.45;1.80;;;;;;;21.31;37.09;92991.72;4952227;28;20510;-75
2021/01/25 03:58:40;;;;;;;3.30;2.00;;;;;;;21.37;37.15;92969.81;4952178;28;20027;-75
2021/01/25 04:01:06;;;;;;;2.90;1.70;;;;;;;21.42;37.09;92994.09;4951977;28;20125;-75
2021/01/25 04:03:31;;;;;;;3.72;1.90;;;;;;;21.44;37.15;92992.25;4951856;28;20046;-75
2021/01/25 04:05:57;;;;;;;2.75;1.83;;;;;;;21.46;37.04;92999.88;4951923;28;20028;-76
2021/01/25 04:08:22;;;;;;;3.53;1.70;;;;;;;21.48;37.08;92991.94;4951930;28;20122;-75
2021/01/25 04:10:48;;;;;;;3.28;1.95;;;;;;;21.51;37.09;92990.84;4951895;28;20027;-75
2021/01/25 04:13:13;;;;;;;2.85;1.70;;;;;;;21.53;37.03;92988.31;4951905;28;20051;-75
2021/01/25 04:15:39;;;;;;;3.17;1.60;;;;;;;21.56;37.11;92992.66;4952031;28;20023;-75
2021/01/25 04:18:04;;;;;;;2.45;1.50;;;;;;;21.55;36.92;92981.06;4951798;28;20488;-75
2021/01/25 04:20:30;;;;;;;3.38;1.85;;;;;;;21.60;37.05;92982.16;4951532;28;20526;-75
2021/01/25 04:22:55;;;;;;;2.83;1.60;;;;;;;21.50;37.29;92962.22;4951056;28;20030;-75
2021/01/25 04:25:21;;;;;;;3.20;1.90;;;;;;;21.64;37.10;92955.31;4950546;29;20027;-75
2021/01/25 04:27:46;;;;;;;2.42;1.50;;;;;;;21.69;36.90;92951.69;4951251;28;20042;-75
2021/01/25 04:30:12;;;;;;;4.00;1.60;;;;;;;21.68;36.89;92939.38;4951477;28;20090;-75
2021/01/25 04:32:38;;;;;;;2.60;1.55;;;;;;;21.69;36.77;92938.13;4952194;28;20206;-74
2021/01/25 04:35:11;;;;;;;2.60;1.55;;;;;;;21.67;36.92;92937.94;4950678;28;20026;-74
2021/01/25 04:37:37;;;;;;;3.22;1.48;;;;;;;21.67;37.19;92933.25;4906294;28;20038;-75
2021/01/25 04:40:04;;;;;;;3.15;1.85;;;;;;;21.61;37.40;92946.28;4963632;28;20138;-75
2021/01/25 04:42:30;;;;;;;1.95;1.33;;;;;;;21.59;37.10;92942.66;4950786;28;20440;-74
2021/01/25 04:44:57;;;;;;;2.75;1.40;;;;;;;21.67;37.31;92949.53;4957876;28;20038;-73
2021/01/25 04:47:22;;;;;;;2.45;1.40;;;;;;;21.74;37.41;92948.06;4966667;28;20026;-75
2021/01/25 04:49:50;;;;;;;3.85;1.67;;;;;;;21.83;37.21;92955.63;4958564;28;20031;-75
2021/01/25 04:52:15;;;;;;;2.38;1.30;;;;;;;21.82;36.96;92962.34;4949489;28;20046;-73
2021/01/25 04:54:41;;;;;;;1.88;1.20;;;;;;;21.99;36.89;92969.34;4936696;28;20431;-72
2021/01/25 04:57:06;;;;;;;2.58;1.30;;;;;;;22.07;36.72;92959.16;4950345;28;20027;-73
2021/01/25 04:59:32;;;;;;;2.60;1.52;;;;;;;22.13;36.73;92967.84;4955060;28;20027;-74
2021/01/25 05:01:57;;;;;;;2.17;1.45;;;;;;;22.24;36.45;92983.78;4950432;28;20031;-76
2021/01/25 05:04:23;;;;;;;2.40;1.38;;;;;;;22.35;36.63;92988.81;4954606;28;20106;-73
2021/01/25 05:06:48;;;;;;;2.92;1.40;;;;;;;22.43;36.17;92994.94;4950239;28;20027;-75
2021/01/25 05:09:13;;;;;;;2.25;1.50;;;;;;;22.55;36.05;93001.41;4952586;28;20117;-76
2021/01/25 05:11:40;;;;;;;2.22;1.30;;;;;;;22.64;35.91;93006.25;4953900;28;20078;-75
2021/01/25 05:14:06;;;;;;;2.53;1.50;;;;;;;22.72;35.78;93009.63;4953152;28;20420;-75
2021/01/25 05:16:31;;;;;;;3.05;1.35;;;;;;;22.80;35.86;93004.91;4950355;28;20059;-74
2021/01/25 05:18:58;;;;;;;2.53;1.42;;;;;;;22.90;35.28;92990.84;4953164;28;20035;-74
2021/01/25 05:21:51;;;;;;;3.05;1.77;;;;;;;22.92;35.09;92980.13;4950103;28;20027;-74
2021/01/25 05:24:17;;;;;;;2.33;1.40;;;;;;;23.07;35.22;92980.03;4954240;28;20120;-74
2021/01/25 05:26:52;;;;;;;2.00;1.40;;;;;;;23.18;35.26;93006.81;4950794;28;20142;-74
2021/01/25 05:29:27;;;;;;;2.70;1.50;;;;;;;23.31;34.97;93028.34;4957613;28;20768;-72
2021/01/25 05:31:53;;;;;;;2.60;1.50;;;;;;;23.39;34.67;93053.50;4955745;28;20035;-72
2021/01/25 05:34:19;;;;;;;2.08;1.50;;;;;;;23.48;34.49;93059.09;4961576;28;20393;-72
2021/01/25 05:36:44;;;;;;;1.67;1.10;;;;;;;23.55;34.55;93049.41;4958817;28;20031;-75
2021/01/25 05:39:16;;;;;;;1.83;1.17;;;;;;;23.61;34.16;93058.06;4962465;28;20031;-75
2021/01/25 05:41:54;;;;;;;2.28;1.23;;;;;;;23.70;34.26;93057.47;4953830;28;20436;-75
2021/01/25 05:44:19;;;;;;;2.25;1.50;;;;;;;23.72;34.31;93060.34;4964596;28;20424;-74
2021/01/25 05:46:45;;;;;;;2.55;1.60;;;;;;;23.79;34.27;93062.31;4952603;28;20035;-73
2021/01/25 05:49:10;;;;;;;2.20;1.30;;;;;;;23.84;34.29;93069.53;4951561;28;20031;-75
2021/01/25 05:51:36;;;;;;;2.22;1.27;;;;;;;23.84;34.04;93078.44;4953590;29;20031;-75
2021/01/25 05:54:02;;;;;;;2.33;1.02;;;;;;;23.89;33.95;93072.75;4958681;28;20081;-72
2021/01/25 05:56:28;;;;;;;2.10;1.40;;;;;;;23.97;33.98;93073.38;4957456;28;20043;-72
2021/01/25 05:58:53;;;;;;;2.50;1.50;;;;;;;24.02;33.56;93080.63;4956419;28;20034;-75
2021/01/25 06:01:20;;;;;;;1.98;1.15;;;;;;;23.97;33.79;93078.84;4966166;28;20031;-75
2021/01/25 06:03:46;;;;;;;3.65;1.27;;;;;;;24.03;33.89;93087.50;4951695;29;20818;-77
2021/01/25 06:06:13;;;;;;;2.22;1.27;;;;;;;24.13;33.38;93096.53;4953515;28;20102;-75
2021/01/25 06:08:47;;;;;;;2.45;1.30;;;;;;;24.19;34.05;93094.28;4956380;28;20042;-72
2021/01/25 06:11:23;;;;;;;5.50;1.20;;;;;;;24.20;33.69;93084.81;4954073;28;20042;-76
2021/01/25 06:14:06;;;;;;;3.25;1.23;;;;;;;24.25;33.54;93092.03;4949426;28;20023;-79
2021/01/25 06:16:33;;;;;;;2.05;1.10;;;;;;;24.26;33.72;93093.50;4967176;28;20038;-76
2021/01/25 06:19:01;;;;;;;2.55;0.93;;;;;;;24.26;33.65;93082.56;4935883;29;20099;-73
2021/01/25 06:21:29;;;;;;;2.65;1.30;;;;;;;24.37;33.43;93093.03;4952854;28;20480;-76
2021/01/25 06:23:55;;;;;;;2.50;1.30;;;;;;;24.28;33.81;93090.91;4941232;28;20079;-78
2021/01/25 06:26:24;;;;;;;2.72;1.20;;;;;;;24.33;33.65;93098.16;4968684;28;20044;-77
2021/01/25 06:28:49;;;;;;;1.73;1.00;;;;;;;24.35;33.74;93101.06;4951104;28;20058;-76
2021/01/25 06:31:22;;;;;;;3.17;1.10;;;;;;;24.51;33.32;93124.16;4955095;28;20568;-75
2021/01/25 06:33:49;;;;;;;2.83;1.20;;;;;;;24.45;33.32;93115.50;4950433;29;20066;-77
2021/01/25 06:36:16;;;;;;;3.30;1.42;;;;;;;24.51;33.49;93118.72;4967105;28;20823;-76
2021/01/25 06:38:42;;;;;;;2.78;1.42;;;;;;;24.51;33.64;93124.16;4949183;29;20039;-79
2021/01/25 06:41:12;;;;;;;2.00;1.13;;;;;;;24.53;33.62;93110.69;4969594;28;20035;-76
2021/01/25 06:43:43;;;;;;;1.85;1.10;;;;;;;24.47;33.69;93112.94;4955139;28;20026;-78
2021/01/25 06:46:08;;;;;;;2.55;1.00;;;;;;;24.51;33.62;93113.25;4950868;28;20097;-78
2021/01/25 06:48:34;;;;;;;1.83;1.00;;;;;;;24.57;33.49;93116.47;4967474;28;20031;-78
2021/01/25 06:51:00;;;;;;;2.97;1.10;;;;;;;24.61;33.37;93127.72;4950981;29;20089;-79
2021/01/25 06:53:26;;;;;;;3.90;1.17;;;;;;;24.59;33.61;93122.09;4955239;28;20578;-76
2021/01/25 06:55:57;;;;;;;2.78;1.27;;;;;;;24.49;33.00;93110.38;4951559;28;20110;-77
2021/01/25 06:58:25;;;;;;;2.90;1.45;;;;;;;24.63;33.64;93127.84;4956128;28;20030;-76
2021/01/25 07:00:51;;;;;;;4.38;1.35;;;;;;;24.71;33.52;93125.75;4954629;28;20039;-72
2021/01/25 07:03:20;;;;;;;3.67;1.40;;;;;;;24.68;33.62;93132.34;4956069;28;20039;-72
2021/01/25 07:05:51;;;;;;;3.03;1.17;;;;;;;24.79;32.99;93131.88;4952473;28;20031;-72
2021/01/25 07:08:17;;;;;;;3.20;1.30;;;;;;;24.80;33.16;93122.38;4953525;28;20073;-74
2021/01/25 07:10:53;;;;;;;3.90;1.20;;;;;;;24.84;32.97;93146.00;4951713;28;20118;-77
2021/01/25 07:13:18;;;;;;;5.03;1.42;;;;;;;24.88;33.03;93135.38;4952737;28;20034;-74
2021/01/25 07:15:44;;;;;;;6.25;1.10;;;;;;;24.87;32.77;93138.69;4966629;28;20412;-72
2021/01/25 07:18:10;;;;;;;3.95;1.20;;;;;;;24.93;32.62;93148.09;4950403;28;21837;-73
2021/01/25 07:20:35;;;;;;;3.90;1.00;;;;;;;24.99;33.00;93156.78;4955498;28;20027;-72
2021/01/25 07:23:01;;;;;;;4.22;1.10;;;;;;;24.95;32.70;93161.91;4957619;28;20027;-71
2021/01/25 07:25:29;;;;;;;2.92;1.10;;;;;;;25.03;32.46;93162.53;4934387;29;20023;-72
2021/01/25 07:28:03;;;;;;;4.45;1.20;;;;;;;25.07;32.46;93167.63;4954253;28;20109;-72
2021/01/25 07:30:32;;;;;;;8.40;2.40;;;;;;;25.03;32.93;93170.75;4955892;28;20500;-71
2021/01/25 07:33:01;;;;;;;12.35;1.75;;;;;;;24.93;33.21;93180.84;4952508;28;20061;-72
2021/01/25 07:35:27;;;;;;;8.98;1.55;;;;;;;24.83;32.83;93139.09;4949635;28;20559;-72
2021/01/25 07:37:53;;;;;;;7.47;1.50;;;;;;;24.76;32.87;93177.41;4954175;28;20198;-72
2021/01/25 07:40:22;;;;;;;4.90;1.70;;;;;;;24.78;33.05;93180.28;4967658;28;20031;-72
2021/01/25 07:42:47;;;;;;;5.28;1.40;;;;;;;24.72;33.27;93209.09;4955832;28;20496;-72
2021/01/25 07:45:13;;;;;;;6.32;1.20;;;;;;;24.67;33.53;93218.28;4956068;28;20041;-72
2021/01/25 07:47:38;;;;;;;7.00;1.23;;;;;;;24.63;33.34;93224.09;4954476;28;20034;-72
2021/01/25 07:50:08;;;;;;;3.03;0.95;;;;;;;24.60;33.79;93251.81;4953420;28;20086;-72
2021/01/25 07:52:33;;;;;;;4.13;1.23;;;;;;;24.51;33.91;93277.00;4950416;28;20101;-72
2021/01/25 07:55:10;;;;;;;5.93;1.40;;;;;;;24.48;34.60;93287.03;4953212;28;20555;-72
2021/01/25 07:57:35;;;;;;;8.13;1.30;;;;;;;24.39;34.78;93309.47;4949008;28;20023;-72
2021/01/25 08:00:01;;;;;;;5.40;1.30;;;;;;;24.33;34.66;93316.41;4953206;28;20459;-72
2021/01/25 08:02:26;;;;;;;6.03;1.27;;;;;;;24.30;34.68;93328.41;4949831;28;20019;-71
2021/01/25 08:04:52;;;;;;;7.00;1.20;;;;;;;24.30;34.99;93372.06;4952957;28;20031;-72
2021/01/25 08:07:18;;;;;;;4.28;1.33;;;;;;;24.34;34.60;93388.81;4950257;28;20031;-72
2021/01/25 08:09:43;;;;;;;3.97;1.10;;;;;;;24.33;34.62;93370.97;4966393;28;20054;-73
2021/01/25 08:12:09;;;;;;;3.35;0.93;;;;;;;24.21;34.71;93394.47;4949384;28;20481;-72
2021/01/25 08:14:39;;;;;;;6.60;1.38;;;;;;;24.12;35.09;93389.59;4948158;28;20074;-70
2021/01/25 08:17:07;;;;;;;4.30;0.95;;;;;;;24.19;34.89;93418.84;4931585;29;20090;-70
2021/01/25 08:19:55;;;;;;;4.30;1.20;;;;;;;24.18;34.91;93414.66;4950722;28;20038;-70
2021/01/25 08:22:25;;;;;;;2.83;0.85;;;;;;;24.14;34.80;93419.78;4950246;28;20118;-71
2021/01/25 08:24:55;;;;;;;5.60;1.20;;;;;;;24.11;34.43;93426.34;4968419;28;20066;-71
2021/01/25 08:27:20;;;;;;;;;;;;;;;24.10;34.67;93452.16;4950162;28;20031;-70
2021/01/25 08:29:46;;;;;;;5.70;1.30;;;;;;;24.05;34.63;93466.75;4971088;28;19918;-70
2021/01/25 08:32:14;;;;;;;3.88;1.00;;;;;;;23.99;34.80;93496.22;4949648;29;20035;-70
2021/01/25 08:34:39;;;;;;;3.65;1.10;;;;;;;23.97;34.76;93498.03;4959305;28;20039;-70
2021/01/25 08:37:10;;;;;;;3.50;1.00;;;;;;;23.96;34.76;93502.00;4970799;28;20046;-71
2021/01/25 08:39:41;;;;;;;5.07;1.40;;;;;;;23.89;34.38;93508.94;4970625;28;20114;-70
2021/01/25 08:42:32;;;;;;;7.72;1.30;;;;;;;23.82;34.88;93513.69;4948977;29;20114;-71
2021/01/25 08:45:08;;;;;;;3.60;1.20;;;;;;;23.76;34.78;93510.44;4947111;28;20429;-71
2021/01/25 08:47:33;;;;;;;3.03;1.10;;;;;;;23.70;34.48;93528.97;4949983;28;20073;-70
2021/01/25 08:49:59;;;;;;;3.35;1.13;;;;;;;23.75;34.81;93514.41;4964492;28;20484;-71
2021/01/25 08:52:39;;;;;;;3.05;0.90;;;;;;;23.76;34.66;93532.25;4964309;28;20026;-70
2021/01/25 08:55:08;;;;;;;5.53;1.17;;;;;;;23.73;34.74;93533.34;4954153;28;20023;-71
2021/01/25 08:57:35;;;;;;;3.70;1.00;;;;;;;23.67;34.62;93532.78;4950061;28;20042;-71
2021/01/25 09:00:11;;;;;;;9.38;1.30;;;;;;;23.64;34.86;93542.06;4948267;29;20031;-71
2021/01/25 09:02:36;;;;;;;5.72;1.50;;;;;;;23.54;35.02;93549.28;4964348;28;20123;-71
2021/01/25 09:05:02;;;;;;;7.35;1.80;;;;;;;23.55;34.92;93550.75;4967810;28;20019;-71
2021/01/25 09:07:28;;;;;;;14.93;2.03;;;;;;;23.56;34.56;93552.22;4950939;28;20078;-71
2021/01/25 09:09:54;;;;;;;9.05;1.75;;;;;;;23.55;34.88;93567.09;4947588;29;20023;-71
2021/01/25 09:12:19;;;;;;;10.35;3.05;;;;;;;23.53;34.90;93569.66;4950873;28;20027;-70
2021/01/25 09:14:45;;;;;;;15.48;2.15;;;;;;;23.42;34.75;93553.66;4951922;28;20030;-71
2021/01/25 09:17:11;;;;;;;17.83;2.88;;;;;;;23.40;34.93;93556.19;4964145;28;20043;-70
2021/01/25 09:19:37;;;;;;;17.92;2.10;;;;;;;23.45;34.92;93579.81;4964058;28;20078;-71
2021/01/25 09:22:06;;;;;;;19.60;3.25;;;;;;;23.42;34.73;93586.34;4951206;28;20019;-71
2021/01/25 09:24:31;;;;;;;12.30;2.57;;;;;;;23.31;34.95;93570.34;4962139;28;20420;-71
2021/01/25 09:26:57;;;;;;;18.73;2.97;;;;;;;23.33;34.96;93578.69;4931905;29;20038;-70
2021/01/25 09:29:22;;;;;;;15.35;2.72;;;;;;;23.21;35.27;93566.69;4951921;28;20062;-70
2021/01/25 09:31:48;;;;;;;17.33;2.85;;;;;;;23.38;35.05;93580.53;4968826;28;20566;-71
2021/01/25 09:34:13;;;;;;;17.80;2.58;;;;;;;23.39;35.25;93587.41;4970018;28;20019;-70
2021/01/25 09:36:39;;;;;;;15.23;3.58;;;;;;;23.29;34.85;93575.63;4970226;28;20030;-70
2021/01/25 09:39:07;;;;;;;21.00;2.67;;;;;;;23.37;35.07;93589.97;4968786;28;20034;-70
2021/01/25 09:41:33;;;;;;;17.02;2.90;;;;;;;23.35;35.53;93592.53;4969686;28;20031;-71
2021/01/25 09:43:59;;;;;;;15.05;2.50;;;;;;;23.31;35.52;93589.41;4968665;28;20030;-71
2021/01/25 09:46:24;;;;;;;22.58;3.22;;;;;;;23.31;35.20;93597.59;4969841;28;20109;-70
2021/01/25 09:48:50;;;;;;;15.60;2.67;;;;;;;23.33;35.56;93595.03;4969054;28;20027;-70
2021/01/25 09:51:15;;;;;;;16.20;2.58;;;;;;;23.35;35.81;93592.53;4955477;28;20031;-70
2021/01/25 09:53:41;;;;;;;15.85;2.47;;;;;;;23.34;35.46;93574.00;4948855;28;20019;-70
2021/01/25 09:56:07;;;;;;;16.67;2.53;;;;;;;23.35;35.55;93576.19;4952235;28;20027;-70
2021/01/25 09:58:34;;;;;;;12.93;2.63;;;;;;;23.26;35.69;93568.53;4964640;28;20046;-71
2021/01/25 10:00:59;;;;;;;13.38;2.35;;;;;;;23.26;35.76;93573.97;4963816;28;20059;-71
2021/01/25 10:03:24;;;;;;;13.52;3.35;;;;;;;23.35;35.98;93575.44;4963365;28;20044;-70
2021/01/25 10:05:50;;;;;;;15.60;2.70;;;;;;;23.32;35.81;93566.38;4950096;28;20043;-70
2021/01/25 10:08:15;;;;;;;13.90;2.22;;;;;;;23.33;35.76;93572.53;4949950;28;20129;-70
2021/01/25 10:10:41;;;;;;;10.50;2.63;;;;;;;23.34;36.18;93574.00;4950239;28;20027;-70
2021/01/25 10:13:06;;;;;;;14.98;2.70;;;;;;;23.33;35.86;93584.16;4950713;28;20030;-74
2021/01/25 10:15:33;;;;;;;15.20;2.28;;;;;;;23.34;36.30;93596.50;4972838;28;20027;-74
2021/01/25 10:17:59;;;;;;;11.18;2.33;;;;;;;23.34;36.30;93604.69;4965760;28;20037;-73
2021/01/25 10:20:25;;;;;;;11.05;2.47;;;;;;;23.34;36.09;93607.41;4960905;28;20034;-73
2021/01/25 10:22:50;;;;;;;8.73;2.28;;;;;;;23.24;36.55;93590.13;4957486;28;20035;-73
2021/01/25 10:25:18;;;;;;;13.70;2.10;;;;;;;23.34;36.57;93591.06;4958687;28;20042;-73
2021/01/25 10:27:43;;;;;;;14.93;2.28;;;;;;;23.38;36.65;93597.59;4952530;28;20046;-76
2021/01/25 10:30:10;;;;;;;10.48;2.08;;;;;;;23.39;36.68;93592.88;4952137;28;20031;-72
2021/01/25 10:32:35;;;;;;;14.07;2.03;;;;;;;23.33;36.46;93586.88;4956150;28;20034;-78
2021/01/25 10:35:01;;;;;;;11.98;1.98;;;;;;;23.38;36.85;93591.44;4940761;28;20035;-75
2021/01/25 10:37:26;;;;;;;13.20;1.90;;;;;;;23.42;36.88;93589.81;4954512;28;20058;-74
2021/01/25 10:39:52;;;;;;;8.80;1.88;;;;;;;23.50;36.51;93587.09;4952440;28;20031;-74
2021/01/25 10:42:17;;;;;;;6.43;1.98;;;;;;;23.57;36.22;93599.97;4953253;28;20031;-74
2021/01/25 10:44:43;;;;;;;7.35;2.13;;;;;;;23.64;36.32;93585.66;4952365;28;20035;-73
2021/01/25 10:47:12;;;;;;;9.25;1.85;;;;;;;23.70;36.54;93580.75;4935738;28;20026;-73
2021/01/25 10:49:37;;;;;;;12.57;2.20;;;;;;;23.79;35.98;93586.38;4951453;28;20131;-75
2021/01/25 10:52:03;;;;;;;7.90;1.67;;;;;;;23.88;36.12;93583.84;4952764;28;20569;-72
2021/01/25 10:54:29;;;;;;;8.88;1.65;;;;;;;23.97;36.06;93586.00;4952263;28;20027;-73
2021/01/25 10:56:56;;;;;;;9.43;2.13;;;;;;;24.09;35.77;93592.53;4951957;28;20030;-73
2021/01/25 10:59:22;;;;;;;10.60;1.90;;;;;;;24.17;35.61;93587.81;4952731;28;20097;-74
2021/01/25 11:01:47;;;;;;;10.70;2.30;;;;;;;24.25;35.19;93585.78;4952296;28;20035;-73
2021/01/25 11:04:13;;;;;;;6.30;1.60;;;;;;;24.31;35.27;93586.31;4951996;28;20055;-76
2021/01/25 11:06:38;;;;;;;9.75;2.08;;;;;;;24.40;35.23;93589.22;4951892;29;20027;-75
2021/01/25 11:09:04;;;;;;;15.15;2.75;;;;;;;24.51;34.70;93585.38;4963388;28;20023;-74
2021/01/25 11:11:32;;;;;;;12.52;2.15;;;;;;;24.59;35.13;93588.81;4950969;28;20066;-75
2021/01/25 11:13:58;;;;;;;11.73;2.03;;;;;;;24.63;34.79;93572.78;4952780;28;20026;-75
2021/01/25 11:16:23;;;;;;;11.55;1.80;;;;;;;24.79;34.54;93574.19;4951992;28;20035;-72
2021/01/25 11:18:49;;;;;;;9.13;2.40;;;;;;;24.84;34.37;93566.50;4954650;28;20151;-73
2021/01/25 11:21:14;;;;;;;8.75;1.85;;;;;;;24.92;34.87;93572.66;4952528;28;20054;-75
2021/01/25 11:23:40;;;;;;;8.43;1.65;;;;;;;25.06;34.37;93581.34;4960615;28;20026;-72
2021/01/25 11:26:05;;;;;;;10.95;1.90;;;;;;;25.16;34.41;93572.00;4954740;28;20027;-72
2021/01/25 11:28:31;;;;;;;5.93;1.70;;;;;;;25.21;34.28;93582.00;4957735;28;20046;-72
2021/01/25 11:30:56;;;;;;;8.20;2.05;;;;;;;25.23;34.30;93571.25;4963568;28;20093;-79
2021/01/25 11:33:21;;;;;;;9.73;1.90;;;;;;;25.30;34.33;93583.41;4955896;28;20038;-80